Boris Petrov

Scout - Ludogorets
22 Feb 2028
Dienstag
Verarbeitung

Persönlichkeit

Anpassungsfähigkeit (13) Ehrgeiz (8) Kontroverse (16) Loyalität (4) Druck (13) Professionalität (7) Fairness (15) Temperament (19)

Profil

Trainerstil Demokratisch
Lizenz Kontinentale C
Entschlossenheit 9
Menschenführung 6
Motivation 12
Disziplin 9
Arbeitszufriedenheit
100%
Ermüdung
0%
Rolle Scout
Gehalt 96.2K p/W
Vertrag 14.03.2030

Leistung

Verhalten Gut
Trainingseffektivität
41%
Spielerentwicklung
55%
Verletzungsprävention
30%
Taktische Umsetzung
40%

Letzte Ereignisse

Nahm an einer Scouting-Besprechung teil jetzt
Empfahl ein Transferziel jetzt
Nahm an einer Scouting-Besprechung teil 7T her
Empfahl ein Transferziel 7T her
Nahm an einer Scouting-Besprechung teil 7T her
Empfahl ein Transferziel 7T her
Nahm an einer Scouting-Besprechung teil 14T her
Empfahl ein Transferziel 14T her

Aktuell beobachtet

118
Spieler Verein Status Fähigkeit Vertrauen Beobachtet Zuletzt beobachtet Letzte Stimme
Karl Fabien Levski Bericht bereit 119 / 121 79% 1 24.01.2028 -
Nikola Iliev Botev Plovdiv Verloren 115 / 120 79% 1 17.01.2028 -
Asen Mitkov Levski Verloren 109 / 119 79% 1 02.01.2028 Befürworten
Danil Glebov Dinamo Moscow Aktiv 138 / 126 40% 2 31.12.2027 -
Nazareno Colombo Racing Club Aktiv 126 / 115 40% 1 31.12.2027 -
Victor Kristiansen Leicester City Aktiv 138 / 131 40% 1 31.12.2027 -
Alessio Zerbin Frosinone Aktiv 140 / 128 40% 1 10.08.2027 -
Jurgen Ekkelenkamp Udinese Aktiv 136 / 122 40% 1 10.08.2027 -
Isaac Price West Bromwich Albion Aktiv 130 / 144 40% 1 02.08.2027 -
Morgan Whittaker Middlesbrough Aktiv 140 / 136 40% 1 02.08.2027 -
Bertrand Traoré Sunderland Aktiv 142 / 150 40% 1 02.08.2027 -
Rocco Vata Watford Aktiv 134 / 112 40% 2 27.07.2027 -
Lorent Tolaj Plymouth Argyle Aktiv 134 / 139 40% 1 27.07.2027 -
Kelly Saravanan Salford City Aktiv 105 / 109 40% 1 27.07.2027 -
Sam Bell Bristol City Aktiv 131 / 118 40% 3 26.07.2027 -
Harry Leonard Peterborough United Aktiv 112 / 102 40% 3 26.07.2027 -
Iwan Morgan Grimsby Town Aktiv 110 / 117 40% 1 26.07.2027 -
Dom Ballard Leyton Orient Aktiv 122 / 128 40% 1 08.07.2027 -
Moussa Dembélé CR Belouizdad Aktiv 138 / 138 40% 1 02.07.2027 -
Hwang Hee-Chan Wolverhampton Aktiv 128 / 135 40% 1 21.06.2027 -
Nathan Broadhead Wrexham Aktiv 135 / 134 40% 1 21.06.2027 -
Ilias Chair Queens Park Rangers Aktiv 137 / 133 40% 1 21.06.2027 -
Mazire Soula Levski Aktiv 114 / 130 76% 1 14.06.2027 Befürworten
Lewis O'Brien Wrexham Aktiv 129 / 128 40% 1 14.06.2027 -
Leif Davis Ipswich Town Aktiv 145 / 146 40% 1 14.06.2027 -
Léo Pereira CSKA Sofia Aktiv 115 / 120 76% 1 02.06.2027 Befürworten
David Romero Parma Aktiv 117 / 137 40% 3 29.05.2027 -
Jovon Makama Norwich City Aktiv 129 / 133 40% 1 29.05.2027 -
Richard Koné Queens Park Rangers Aktiv 123 / 114 40% 1 28.05.2027 -
Keagan Tau Ajax Cape Town Aktiv 91 / 99 40% 3 27.05.2027 -
Christ Inao Oulaï Fiorentina Aktiv 132 / 135 40% 5 27.05.2027 -
Leonardo Mendicino Bari Aktiv 114 / 124 40% 1 27.05.2027 -
Matvey Kislyak CSKA Moscow Aktiv 131 / 133 40% 3 26.05.2027 -
Riley Owen Trento Aktiv 103 / 93 40% 1 26.05.2027 -
Shea Charles Southampton Aktiv 132 / 152 40% 1 25.05.2027 -
Ethan Galbraith Swansea City Aktiv 138 / 126 40% 1 25.05.2027 -
Florentino Luís Ipswich Town Aktiv 147 / 152 40% 2 24.05.2027 -
Habib Diarra Sunderland Aktiv 145 / 144 40% 3 24.05.2027 -
Brian De Keersmaecker Oxford United Aktiv 127 / 126 40% 1 24.05.2027 -
Daniel Costa Sporting CP Aktiv 84 / 93 40% 3 23.05.2027 -
Zane Albarus Cambridge United Aktiv 93 / 91 40% 1 23.05.2027 -
Zaïd BafdilI Sporting CP Aktiv 97 / 85 40% 2 21.05.2027 -
Aidomo Emakhu Oxford United Aktiv 115 / 139 40% 1 21.05.2027 -
Jacopo Desogus AlbinoLeffe Aktiv 109 / 105 40% 1 21.05.2027 -
Harry Clarke Preston Aktiv 132 / 141 40% 1 17.05.2027 -
Manfred Ugalde Spartak Moscow Aktiv 131 / 137 40% 2 16.05.2027 -
August Priske Birmingham Aktiv 131 / 121 40% 1 16.05.2027 -
José Martínes CSKA 1948 Aktiv 109 / 114 40% 5 15.05.2027 -
Francesco Petito Dolomiti Bellunesi Aktiv 104 / 105 40% 1 15.05.2027 -
Talles Magno Wolverhampton Aktiv 135 / 117 40% 1 14.05.2027 -
Vivaldo Semedo Watford Aktiv 118 / 124 40% 1 14.05.2027 -
Tyreece Campbell Charlton Athletic Aktiv 115 / 111 40% 1 13.05.2027 -
Álex Centelles Levski Aktiv 133 / 126 40% 2 12.05.2027 Mehr Infos nötig
Tiago Freitas Benfica Aktiv 107 / 110 40% 3 12.05.2027 -
Caleb Yirenkyi Coventry City Aktiv 143 / 132 40% 1 12.05.2027 -
Nicolas Madsen Queens Park Rangers Aktiv 136 / 118 40% 1 12.05.2027 -
Pelle Mattsson Norwich City Aktiv 118 / 111 40% 1 12.05.2027 -
Juan Giménez Celta Aktiv 115 / 129 40% 1 09.05.2027 -
Dylan Lawlor Cardiff City Aktiv 119 / 115 40% 1 08.05.2027 -
Aidan Morris Middlesbrough Aktiv 136 / 127 40% 1 07.05.2027 -
Luke McNally Bristol City Aktiv 126 / 117 40% 1 07.05.2027 -
Derry Murkin Derby County Aktiv 131 / 124 40% 1 06.05.2027 -
Sascha Britschgi Padova Aktiv 120 / 127 40% 3 05.05.2027 -
Job Ochieng Real Sociedad Aktiv 115 / 122 40% 3 04.05.2027 -
Stiven Shpendi Empoli Aktiv 116 / 131 40% 2 04.05.2027 -
Ben Ahmed Kohili Paradou Aktiv 106 / 112 40% 2 03.05.2027 -
Younes Ebnoutalib Eintracht Frankfurt Aktiv 127 / 124 40% 1 03.05.2027 -
Alessandro Sersanti Modena Aktiv 124 / 132 40% 2 01.05.2027 -
Nicolò Savona Nottingham Forest Aktiv 141 / 157 40% 1 01.05.2027 -
Eduardo Felicíssimo Sporting CP Aktiv 113 / 109 40% 1 30.04.2027 -
Ilja Vakhania Krasnodar Aktiv 123 / 117 40% 1 27.04.2027 -
Leandro Martins Benfica Aktiv 98 / 83 40% 2 25.04.2027 -
Georgi Lazarov Cherno More Aktiv 96 / 95 40% 1 25.04.2027 -
Martim Cunha Porto Aktiv 95 / 119 40% 1 25.04.2027 -
Karim Coulibaly RC Strasbourg Aktiv 120 / 122 40% 3 24.04.2027 -
Williams Manyama SuperSport United Aktiv 108 / 111 40% 2 22.04.2027 -
Matteo Lovato Padova Aktiv 125 / 124 40% 1 22.04.2027 -
Christian Krasnodar Aktiv 134 / 133 40% 3 16.04.2027 -
Aleksa Terzić Frosinone Aktiv 125 / 112 40% 1 16.04.2027 -
Jay Idzes Sassuolo Aktiv 130 / 143 40% 1 14.04.2027 -
Daniel Tonoli Modena Aktiv 129 / 121 40% 1 14.04.2027 -
Marco Sala Avellino Aktiv 111 / 101 40% 1 14.04.2027 -
Simone Canestrelli Pisa Aktiv 139 / 138 40% 1 13.04.2027 -
Kian Fitz-Jim Torino Aktiv 132 / 121 40% 2 11.04.2027 -
Gianluca Busio Venezia Aktiv 128 / 140 40% 1 11.04.2027 -
Jorge Meireles AVS Aktiv 110 / 129 40% 1 10.04.2027 -
Ekain Orobengoa Real Sociedad Aktiv 104 / 117 40% 1 10.04.2027 -
Ilario Monterisi Frosinone Aktiv 134 / 125 40% 2 06.04.2027 -
Yaroslav Gladyshev Dinamo Moscow Aktiv 127 / 131 40% 2 03.04.2027 -
Luke Baartman ES Mostaganem Aktiv 104 / 111 40% 1 03.04.2027 -
Romano Floriani Mussolini Avellino Aktiv 122 / 111 40% 1 02.04.2027 -
Ronwen Phiri Platinum Stars Aktiv 95 / 94 40% 1 02.04.2027 -
Tobias Slotsager Casertana Aktiv 108 / 101 40% 1 02.04.2027 -
Adrián Bernabé Parma Aktiv 132 / 149 40% 1 31.03.2027 -
Rubens Dinamo Moscow Aktiv 130 / 121 40% 1 31.03.2027 -
Tommaso Pobega Bologna Aktiv 135 / 141 40% 2 28.03.2027 -
Emanuele Schimmenti Potenza Aktiv 121 / 109 40% 1 24.03.2027 -
Filippo Ranocchia Palermo Aktiv 132 / 114 40% 1 23.03.2027 -
Ardon Jashari AC Milan Aktiv 140 / 123 40% 1 22.03.2027 -
Yacine Adli Al-Shabab Aktiv 146 / 129 40% 1 20.03.2027 -
Caspar Jander Southampton Aktiv 123 / 118 40% 1 18.03.2027 -
Rody Junior Effaghe Aris Aktiv 101 / 93 40% 2 17.03.2027 -
David Kalokoh Ajax Aktiv 118 / 111 40% 1 17.03.2027 -
Amaury Morales Pumas UNAM Aktiv 107 / 120 40% 1 17.03.2027 -
Prince Ukachukwu Sumgayit Aktiv 97 / 113 40% 1 11.03.2027 -
Nikolay Zlatev Cherno More Aktiv 101 / 93 40% 1 11.03.2027 -
Finley McAllister Grimsby Town Aktiv 99 / 95 40% 1 09.03.2027 -
Ezra Mayers West Ham United Aktiv 111 / 122 40% 1 09.03.2027 -
Lucas Mbamba Westerlo Aktiv 83 / 82 40% 1 09.03.2027 -
Abdoulaye Kanté Al-Ettifaq Aktiv 105 / 134 40% 1 08.03.2027 -
Ignacio Perruzzi San Lorenzo Aktiv 118 / 114 40% 1 07.03.2027 -
Nikola Simić Partizan Aktiv 111 / 120 40% 2 04.03.2027 -
Gonçalo Oliveira Benfica Aktiv 101 / 122 40% 1 02.03.2027 -
Eren Aydın Zira Aktiv 115 / 93 40% 2 24.02.2027 -
Tio Cipot NK Maribor Aktiv 122 / 120 40% 1 02.02.2027 -
Alasana Yirajang AS Trencin Aktiv 114 / 129 40% 1 02.02.2027 -
Axel Pérez NK Domzale Aktiv 106 / 118 40% 1 01.02.2027 -
David Ozoh Derby County Aktiv 118 / 139 40% 1 02.08.2026 -